sensor_id;sensor_type;location;lat;lon;timestamp;pressure;altitude;pressure_sealevel;temperature;humidity
41218;BME280;26950;50.960;7.138;2023-04-29T00:00:41;100316.59;;;16.61;65.21
41218;BME280;26950;50.960;7.138;2023-04-29T00:03:07;100320.13;;;16.51;65.57
41218;BME280;26950;50.960;7.138;2023-04-29T00:05:34;100327.19;;;16.44;65.57
41218;BME280;26950;50.960;7.138;2023-04-29T00:08:02;100327.19;;;16.57;65.39
41218;BME280;26950;50.960;7.138;2023-04-29T00:10:29;100328.06;;;16.66;64.90
41218;BME280;26950;50.960;7.138;2023-04-29T00:12:55;100324.53;;;16.66;64.64
41218;BME280;26950;50.960;7.138;2023-04-29T00:15:22;100321.00;;;16.56;64.96
41218;BME280;26950;50.960;7.138;2023-04-29T00:17:48;100325.41;;;16.57;64.38
41218;BME280;26950;50.960;7.138;2023-04-29T00:20:15;100323.69;;;16.41;64.78
41218;BME280;26950;50.960;7.138;2023-04-29T00:22:41;100325.41;;;16.57;63.85
41218;BME280;26950;50.960;7.138;2023-04-29T00:25:09;100328.09;;;16.27;64.00
41218;BME280;26950;50.960;7.138;2023-04-29T00:27:36;100338.69;;;16.22;63.92
41218;BME280;26950;50.960;7.138;2023-04-29T00:30:04;100327.19;;;16.40;63.30
41218;BME280;26950;50.960;7.138;2023-04-29T00:32:31;100333.38;;;16.43;63.08
41218;BME280;26950;50.960;7.138;2023-04-29T00:34:57;100339.56;;;16.52;62.70
41218;BME280;26950;50.960;7.138;2023-04-29T00:37:24;100336.03;;;16.51;62.42
41218;BME280;26950;50.960;7.138;2023-04-29T00:39:50;100340.47;;;16.48;62.20
41218;BME280;26950;50.960;7.138;2023-04-29T00:42:19;100341.34;;;16.30;62.13
41218;BME280;26950;50.960;7.138;2023-04-29T00:44:45;100345.75;;;16.38;62.11
41218;BME280;26950;50.960;7.138;2023-04-29T00:47:12;100347.50;;;16.50;61.50
41218;BME280;26950;50.960;7.138;2023-04-29T00:49:39;100351.03;;;16.43;61.67
41218;BME280;26950;50.960;7.138;2023-04-29T00:52:06;100352.78;;;16.00;62.76
41218;BME280;26950;50.960;7.138;2023-04-29T00:54:33;100349.28;;;16.36;62.09
41218;BME280;26950;50.960;7.138;2023-04-29T00:57:00;100352.81;;;16.38;61.40
41218;BME280;26950;50.960;7.138;2023-04-29T00:59:29;100352.81;;;16.26;61.19
41218;BME280;26950;50.960;7.138;2023-04-29T01:01:57;100355.38;;;15.83;62.18
41218;BME280;26950;50.960;7.138;2023-04-29T01:04:24;100358.97;;;16.25;60.92
41218;BME280;26950;50.960;7.138;2023-04-29T01:06:57;100358.97;;;16.25;60.98
41218;BME280;26950;50.960;7.138;2023-04-29T01:09:34;100361.63;;;16.28;60.84
41218;BME280;26950;50.960;7.138;2023-04-29T01:12:10;100362.50;;;16.14;61.21
41218;BME280;26950;50.960;7.138;2023-04-29T01:14:44;100364.25;;;16.34;60.60
41218;BME280;26950;50.960;7.138;2023-04-29T01:17:17;100353.69;;;16.37;60.62
41218;BME280;26950;50.960;7.138;2023-04-29T01:19:47;100369.56;;;16.32;60.27
41218;BME280;26950;50.960;7.138;2023-04-29T01:22:15;100366.94;;;16.31;60.49
41218;BME280;26950;50.960;7.138;2023-04-29T01:24:44;100367.81;;;16.36;60.09
41218;BME280;26950;50.960;7.138;2023-04-29T01:27:20;100363.41;;;16.38;60.26
41218;BME280;26950;50.960;7.138;2023-04-29T01:29:54;100366.06;;;16.41;60.14
41218;BME280;26950;50.960;7.138;2023-04-29T01:32:26;100362.50;;;16.43;59.89
41218;BME280;26950;50.960;7.138;2023-04-29T01:34:59;100366.03;;;16.44;59.95
41218;BME280;26950;50.960;7.138;2023-04-29T01:37:34;100373.13;;;16.43;60.14
41218;BME280;26950;50.960;7.138;2023-04-29T01:40:11;100367.81;;;16.33;60.68
41218;BME280;26950;50.960;7.138;2023-04-29T01:42:39;100377.53;;;16.37;60.41
41218;BME280;26950;50.960;7.138;2023-04-29T01:45:10;100376.63;;;16.26;61.06
41218;BME280;26950;50.960;7.138;2023-04-29T01:47:40;100375.72;;;16.13;61.12
41218;BME280;26950;50.960;7.138;2023-04-29T01:50:07;100380.16;;;16.14;61.42
41218;BME280;26950;50.960;7.138;2023-04-29T01:52:34;100389.84;;;16.19;61.38
41218;BME280;26950;50.960;7.138;2023-04-29T01:55:00;100376.63;;;16.10;61.14
41218;BME280;26950;50.960;7.138;2023-04-29T01:57:29;100388.91;;;15.90;61.96
41218;BME280;26950;50.960;7.138;2023-04-29T01:59:55;100381.91;;;16.10;61.54
41218;BME280;26950;50.960;7.138;2023-04-29T02:02:22;100393.41;;;16.18;61.24
41218;BME280;26950;50.960;7.138;2023-04-29T02:04:49;100389.84;;;16.04;61.66
41218;BME280;26950;50.960;7.138;2023-04-29T02:07:16;100388.97;;;16.11;61.29
41218;BME280;26950;50.960;7.138;2023-04-29T02:09:42;100398.63;;;15.96;61.56
41218;BME280;26950;50.960;7.138;2023-04-29T02:12:09;100405.72;;;16.00;61.46
41218;BME280;26950;50.960;7.138;2023-04-29T02:14:37;100403.94;;;16.00;61.65
41218;BME280;26950;50.960;7.138;2023-04-29T02:17:03;100403.97;;;16.06;61.47
41218;BME280;26950;50.960;7.138;2023-04-29T02:19:30;100408.38;;;16.07;61.52
41218;BME280;26950;50.960;7.138;2023-04-29T02:21:56;100402.19;;;15.99;61.59
41218;BME280;26950;50.960;7.138;2023-04-29T02:24:23;100403.94;;;15.93;61.65
41218;BME280;26950;50.960;7.138;2023-04-29T02:26:49;100409.22;;;15.94;61.76
41218;BME280;26950;50.960;7.138;2023-04-29T02:29:16;100413.63;;;15.92;61.79
41218;BME280;26950;50.960;7.138;2023-04-29T02:31:43;100410.03;;;15.67;63.12
41218;BME280;26950;50.960;7.138;2023-04-29T02:34:10;100422.41;;;15.79;62.77
41218;BME280;26950;50.960;7.138;2023-04-29T02:36:37;100424.19;;;15.81;62.88
41218;BME280;26950;50.960;7.138;2023-04-29T02:39:03;100418.88;;;15.80;62.86
41218;BME280;26950;50.960;7.138;2023-04-29T02:41:30;100416.25;;;15.78;62.92
41218;BME280;26950;50.960;7.138;2023-04-29T02:43:56;100421.47;;;15.71;63.58
41218;BME280;26950;50.960;7.138;2023-04-29T02:46:22;100426.84;;;15.78;63.27
41218;BME280;26950;50.960;7.138;2023-04-29T02:48:50;100424.13;;;15.69;63.28
41218;BME280;26950;50.960;7.138;2023-04-29T02:51:17;100428.56;;;15.72;63.83
41218;BME280;26950;50.960;7.138;2023-04-29T02:53:44;100438.22;;;15.63;63.93
41218;BME280;26950;50.960;7.138;2023-04-29T02:56:10;100430.31;;;15.70;63.92
41218;BME280;26950;50.960;7.138;2023-04-29T02:58:36;100435.59;;;15.70;63.63
41218;BME280;26950;50.960;7.138;2023-04-29T03:01:03;100439.16;;;15.72;63.75
41218;BME280;26950;50.960;7.138;2023-04-29T03:03:29;100434.75;;;15.74;63.99
41218;BME280;26950;50.960;7.138;2023-04-29T03:05:57;100431.19;;;15.70;64.13
41218;BME280;26950;50.960;7.138;2023-04-29T03:08:24;100444.44;;;15.72;64.36
41218;BME280;26950;50.960;7.138;2023-04-29T03:10:50;100434.59;;;15.46;65.49
41218;BME280;26950;50.960;7.138;2023-04-29T03:13:17;100437.34;;;15.66;64.82
41218;BME280;26950;50.960;7.138;2023-04-29T03:15:43;100436.47;;;15.66;64.79
41218;BME280;26950;50.960;7.138;2023-04-29T03:18:10;100440.84;;;15.63;65.03
41218;BME280;26950;50.960;7.138;2023-04-29T03:20:36;100444.31;;;15.56;65.09
41218;BME280;26950;50.960;7.138;2023-04-29T03:23:04;100439.00;;;15.50;65.12
41218;BME280;26950;50.960;7.138;2023-04-29T03:25:30;100450.47;;;15.46;65.59
41218;BME280;26950;50.960;7.138;2023-04-29T03:27:57;100446.06;;;15.50;65.67
41218;BME280;26950;50.960;7.138;2023-04-29T03:30:23;100441.69;;;15.53;65.64
41218;BME280;26950;50.960;7.138;2023-04-29T03:32:49;100455.72;;;15.43;65.77
41218;BME280;26950;50.960;7.138;2023-04-29T03:35:16;100457.50;;;15.47;65.96
41218;BME280;26950;50.960;7.138;2023-04-29T03:37:42;100445.19;;;15.49;65.91
41218;BME280;26950;50.960;7.138;2023-04-29T03:40:12;100453.03;;;15.38;66.26
41218;BME280;26950;50.960;7.138;2023-04-29T03:42:38;100446.72;;;15.10;66.98
41218;BME280;26950;50.960;7.138;2023-04-29T03:45:06;100456.41;;;15.15;66.92
41218;BME280;26950;50.960;7.138;2023-04-29T03:47:32;100457.34;;;15.20;66.95
41218;BME280;26950;50.960;7.138;2023-04-29T03:49:59;100457.31;;;15.17;66.95
41218;BME280;26950;50.960;7.138;2023-04-29T03:52:27;100453.81;;;15.18;66.69
41218;BME280;26950;50.960;7.138;2023-04-29T03:54:54;100455.44;;;15.02;67.06
41218;BME280;26950;50.960;7.138;2023-04-29T03:57:21;100458.03;;;14.93;67.32
41218;BME280;26950;50.960;7.138;2023-04-29T03:59:48;100466.00;;;15.02;66.55
41218;BME280;26950;50.960;7.138;2023-04-29T04:02:15;100466.78;;;14.89;66.34
41218;BME280;26950;50.960;7.138;2023-04-29T04:04:41;100469.44;;;14.84;66.68
41218;BME280;26950;50.960;7.138;2023-04-29T04:07:08;100467.63;;;14.83;66.52
41218;BME280;26950;50.960;7.138;2023-04-29T04:09:35;100479.06;;;14.82;66.48
41218;BME280;26950;50.960;7.138;2023-04-29T04:12:02;100479.94;;;14.78;66.45
41218;BME280;26950;50.960;7.138;2023-04-29T04:14:30;100482.63;;;14.84;66.58
41218;BME280;26950;50.960;7.138;2023-04-29T04:16:57;100487.81;;;14.73;66.86
41218;BME280;26950;50.960;7.138;2023-04-29T04:19:23;100486.00;;;14.66;66.89
41218;BME280;26950;50.960;7.138;2023-04-29T04:21:51;100487.88;;;14.79;66.54
41218;BME280;26950;50.960;7.138;2023-04-29T04:24:17;100491.22;;;14.63;66.99
41218;BME280;26950;50.960;7.138;2023-04-29T04:26:44;100495.69;;;14.69;66.65
41218;BME280;26950;50.960;7.138;2023-04-29T04:29:10;100499.25;;;14.71;66.57
41218;BME280;26950;50.960;7.138;2023-04-29T04:31:38;100507.19;;;14.77;66.21
41218;BME280;26950;50.960;7.138;2023-04-29T04:34:05;100506.34;;;14.78;66.27
41218;BME280;26950;50.960;7.138;2023-04-29T04:36:31;100509.88;;;14.80;66.23
41218;BME280;26950;50.960;7.138;2023-04-29T04:38:57;100512.41;;;14.66;67.09
41218;BME280;26950;50.960;7.138;2023-04-29T04:41:24;100513.28;;;14.68;66.49
41218;BME280;26950;50.960;7.138;2023-04-29T04:43:50;100523.03;;;14.74;66.53
41218;BME280;26950;50.960;7.138;2023-04-29T04:46:17;100521.16;;;14.64;66.75
41218;BME280;26950;50.960;7.138;2023-04-29T04:48:45;100523.03;;;14.74;66.58
41218;BME280;26950;50.960;7.138;2023-04-29T04:51:12;100518.63;;;14.71;66.57
41218;BME280;26950;50.960;7.138;2023-04-29T04:53:39;100530.06;;;14.72;66.57
41218;BME280;26950;50.960;7.138;2023-04-29T04:56:06;100533.47;;;14.60;66.89
41218;BME280;26950;50.960;7.138;2023-04-29T04:58:33;100535.25;;;14.64;66.84
41218;BME280;26950;50.960;7.138;2023-04-29T05:01:00;100547.56;;;14.62;66.96
41218;BME280;26950;50.960;7.138;2023-04-29T05:03:26;100543.97;;;14.54;67.56
41218;BME280;26950;50.960;7.138;2023-04-29T05:05:55;100545.03;;;14.73;66.78
41218;BME280;26950;50.960;7.138;2023-04-29T05:08:21;100544.09;;;14.66;66.92
41218;BME280;26950;50.960;7.138;2023-04-29T05:10:48;100555.59;;;14.73;66.81
41218;BME280;26950;50.960;7.138;2023-04-29T05:13:14;100555.63;;;14.76;66.61
41218;BME280;26950;50.960;7.138;2023-04-29T05:15:41;100557.44;;;14.80;66.39
41218;BME280;26950;50.960;7.138;2023-04-29T05:18:08;100557.38;;;14.77;66.57
41218;BME280;26950;50.960;7.138;2023-04-29T05:20:35;100558.75;;;14.41;68.01
41218;BME280;26950;50.960;7.138;2023-04-29T05:23:03;100567.78;;;14.59;67.39
41218;BME280;26950;50.960;7.138;2023-04-29T05:25:30;100573.97;;;14.62;67.02
41218;BME280;26950;50.960;7.138;2023-04-29T05:27:56;100573.09;;;14.60;67.04
41218;BME280;26950;50.960;7.138;2023-04-29T05:30:23;100573.09;;;14.62;66.82
41218;BME280;26950;50.960;7.138;2023-04-29T05:32:49;100575.72;;;14.60;66.88
41218;BME280;26950;50.960;7.138;2023-04-29T05:35:16;100576.56;;;14.56;67.09
41218;BME280;26950;50.960;7.138;2023-04-29T05:37:42;100578.31;;;14.55;67.19
41218;BME280;26950;50.960;7.138;2023-04-29T05:40:11;100581.66;;;14.42;67.35
41218;BME280;26950;50.960;7.138;2023-04-29T05:42:37;100576.28;;;14.33;67.83
41218;BME280;26950;50.960;7.138;2023-04-29T05:45:04;100592.31;;;14.48;67.54
41218;BME280;26950;50.960;7.138;2023-04-29T05:47:31;100590.69;;;14.60;67.28
41218;BME280;26950;50.960;7.138;2023-04-29T05:49:58;100601.25;;;14.60;66.99
41218;BME280;26950;50.960;7.138;2023-04-29T05:52:25;100597.72;;;14.59;66.79
41218;BME280;26950;50.960;7.138;2023-04-29T05:54:51;100610.06;;;14.62;66.77
41218;BME280;26950;50.960;7.138;2023-04-29T05:57:19;100608.06;;;14.42;67.52
41218;BME280;26950;50.960;7.138;2023-04-29T05:59:45;100610.88;;;14.57;66.99
41218;BME280;26950;50.960;7.138;2023-04-29T06:02:12;100613.59;;;14.61;66.81
41218;BME280;26950;50.960;7.138;2023-04-29T06:04:38;100615.34;;;14.62;66.57
41218;BME280;26950;50.960;7.138;2023-04-29T06:07:06;100617.06;;;14.58;66.71
41218;BME280;26950;50.960;7.138;2023-04-29T06:09:33;100622.41;;;14.63;66.76
41218;BME280;26950;50.960;7.138;2023-04-29T06:12:00;100625.91;;;14.59;67.23
41218;BME280;26950;50.960;7.138;2023-04-29T06:14:28;100638.09;;;14.50;67.56
41218;BME280;26950;50.960;7.138;2023-04-29T06:16:55;100633.75;;;14.52;67.22
41218;BME280;26950;50.960;7.138;2023-04-29T06:19:21;100638.97;;;14.48;67.19
41218;BME280;26950;50.960;7.138;2023-04-29T06:21:49;100644.38;;;14.59;66.62
41218;BME280;26950;50.960;7.138;2023-04-29T06:24:15;100654.09;;;14.63;66.27
41218;BME280;26950;50.960;7.138;2023-04-29T06:26:42;100645.22;;;14.57;66.65
41218;BME280;26950;50.960;7.138;2023-04-29T06:29:09;100648.75;;;14.56;66.39
41218;BME280;26950;50.960;7.138;2023-04-29T06:31:37;100654.03;;;14.58;66.58
41218;BME280;26950;50.960;7.138;2023-04-29T06:34:03;100657.50;;;14.52;66.80
41218;BME280;26950;50.960;7.138;2023-04-29T06:36:30;100664.59;;;14.56;66.86
41218;BME280;26950;50.960;7.138;2023-04-29T06:38:57;100674.28;;;14.57;66.93
41218;BME280;26950;50.960;7.138;2023-04-29T06:41:23;100669.91;;;14.60;67.01
41218;BME280;26950;50.960;7.138;2023-04-29T06:43:51;100668.16;;;14.62;66.77
41218;BME280;26950;50.960;7.138;2023-04-29T06:46:17;100673.53;;;14.66;66.36
41218;BME280;26950;50.960;7.138;2023-04-29T06:48:45;100680.56;;;14.69;66.37
41218;BME280;26950;50.960;7.138;2023-04-29T06:51:12;100675.28;;;14.69;66.48
41218;BME280;26950;50.960;7.138;2023-04-29T06:53:39;100679.75;;;14.71;66.53
41218;BME280;26950;50.960;7.138;2023-04-29T06:56:06;100697.38;;;14.72;66.37
41218;BME280;26950;50.960;7.138;2023-04-29T06:58:33;100689.44;;;14.74;66.46
41218;BME280;26950;50.960;7.138;2023-04-29T07:00:59;100678.91;;;14.75;66.54
41218;BME280;26950;50.960;7.138;2023-04-29T07:03:27;100692.88;;;14.67;66.78
41218;BME280;26950;50.960;7.138;2023-04-29T07:05:55;100699.94;;;14.68;66.38
41218;BME280;26950;50.960;7.138;2023-04-29T07:08:21;100702.63;;;14.71;66.57
41218;BME280;26950;50.960;7.138;2023-04-29T07:10:53;100707.88;;;14.69;66.45
41218;BME280;26950;50.960;7.138;2023-04-29T07:13:20;100720.19;;;14.69;66.61
41218;BME280;26950;50.960;7.138;2023-04-29T07:15:47;100714.09;;;14.71;66.65
41218;BME280;26950;50.960;7.138;2023-04-29T07:18:13;100722.03;;;14.76;66.49
41218;BME280;26950;50.960;7.138;2023-04-29T07:20:40;100721.16;;;14.75;66.53
41218;BME280;26950;50.960;7.138;2023-04-29T07:23:09;100723.81;;;14.77;66.33
41218;BME280;26950;50.960;7.138;2023-04-29T07:25:35;100738.81;;;14.78;66.34
41218;BME280;26950;50.960;7.138;2023-04-29T07:28:01;100741.50;;;14.81;66.32
41218;BME280;26950;50.960;7.138;2023-04-29T07:30:29;100735.31;;;14.79;66.09
41218;BME280;26950;50.960;7.138;2023-04-29T07:32:55;100733.38;;;14.66;66.56
41218;BME280;26950;50.960;7.138;2023-04-29T07:35:22;100741.41;;;14.75;66.29
41218;BME280;26950;50.960;7.138;2023-04-29T07:37:48;100748.44;;;14.74;66.49
41218;BME280;26950;50.960;7.138;2023-04-29T07:40:16;100745.97;;;14.88;66.02
41218;BME280;26950;50.960;7.138;2023-04-29T07:42:43;100751.31;;;14.91;65.86
41218;BME280;26950;50.960;7.138;2023-04-29T07:45:09;100746.84;;;14.89;65.85
41218;BME280;26950;50.960;7.138;2023-04-29T07:47:37;100749.50;;;14.89;65.80
41218;BME280;26950;50.960;7.138;2023-04-29T07:50:05;100747.72;;;14.88;65.95
41218;BME280;26950;50.960;7.138;2023-04-29T07:52:31;100759.25;;;14.93;66.01
41218;BME280;26950;50.960;7.138;2023-04-29T07:54:58;100753.03;;;14.89;66.19
41218;BME280;26950;50.960;7.138;2023-04-29T07:57:26;100749.50;;;14.87;66.48
41218;BME280;26950;50.960;7.138;2023-04-29T07:59:53;100755.72;;;14.91;66.25
41218;BME280;26950;50.960;7.138;2023-04-29T08:02:20;100756.59;;;14.93;66.17
41218;BME280;26950;50.960;7.138;2023-04-29T08:04:47;100764.56;;;14.96;66.11
41218;BME280;26950;50.960;7.138;2023-04-29T08:07:15;100765.41;;;14.93;66.19
41218;BME280;26950;50.960;7.138;2023-04-29T08:09:41;100767.13;;;14.88;65.96
41218;BME280;26950;50.960;7.138;2023-04-29T08:12:08;100768.94;;;14.94;65.79
41218;BME280;26950;50.960;7.138;2023-04-29T08:14:36;100771.59;;;14.95;65.72
41218;BME280;26950;50.960;7.138;2023-04-29T08:17:02;100776.94;;;15.00;65.40
41218;BME280;26950;50.960;7.138;2023-04-29T08:19:29;100776.94;;;14.98;65.20
41218;BME280;26950;50.960;7.138;2023-04-29T08:21:56;100777.81;;;14.99;65.46
41218;BME280;26950;50.960;7.138;2023-04-29T08:24:22;100775.22;;;15.02;65.03
41218;BME280;26950;50.960;7.138;2023-04-29T08:26:49;100781.44;;;15.05;65.13
41218;BME280;26950;50.960;7.138;2023-04-29T08:29:16;100779.66;;;15.06;65.10
41218;BME280;26950;50.960;7.138;2023-04-29T08:31:44;100790.25;;;15.06;65.19
41218;BME280;26950;50.960;7.138;2023-04-29T08:34:11;100787.63;;;15.07;64.71
41218;BME280;26950;50.960;7.138;2023-04-29T08:36:37;100788.63;;;15.19;64.96
41218;BME280;26950;50.960;7.138;2023-04-29T08:39:04;100789.59;;;15.25;64.74
41218;BME280;26950;50.960;7.138;2023-04-29T08:41:30;100794.13;;;15.37;64.78
41218;BME280;26950;50.960;7.138;2023-04-29T08:43:58;100801.38;;;15.53;64.20
41218;BME280;26950;50.960;7.138;2023-04-29T08:46:25;100792.56;;;15.56;63.91
41218;BME280;26950;50.960;7.138;2023-04-29T08:48:54;100799.72;;;15.63;63.29
41218;BME280;26950;50.960;7.138;2023-04-29T08:51:22;100794.19;;;15.40;63.20
41218;BME280;26950;50.960;7.138;2023-04-29T08:53:49;100805.56;;;15.34;62.33
41218;BME280;26950;50.960;7.138;2023-04-29T08:56:16;100813.47;;;15.33;62.21
41218;BME280;26950;50.960;7.138;2023-04-29T08:58:46;100813.53;;;15.36;61.69
41218;BME280;26950;50.960;7.138;2023-04-29T09:01:13;100817.78;;;15.23;62.09
41218;BME280;26950;50.960;7.138;2023-04-29T09:03:43;100820.44;;;15.25;62.22
41218;BME280;26950;50.960;7.138;2023-04-29T09:06:14;100825.72;;;15.25;61.73
41218;BME280;26950;50.960;7.138;2023-04-29T09:08:41;100824.03;;;15.30;61.68
41218;BME280;26950;50.960;7.138;2023-04-29T09:11:08;100819.69;;;15.35;61.61
41218;BME280;26950;50.960;7.138;2023-04-29T09:13:36;100829.38;;;15.36;61.70
41218;BME280;26950;50.960;7.138;2023-04-29T09:16:02;100824.91;;;15.32;61.50
41218;BME280;26950;50.960;7.138;2023-04-29T09:18:44;100834.59;;;15.31;61.70
41218;BME280;26950;50.960;7.138;2023-04-29T09:21:17;100832.84;;;15.32;61.66
41218;BME280;26950;50.960;7.138;2023-04-29T09:23:44;100834.53;;;15.27;61.61
41218;BME280;26950;50.960;7.138;2023-04-29T09:26:11;100834.53;;;15.27;61.44
41218;BME280;26950;50.960;7.138;2023-04-29T09:28:38;100843.41;;;15.29;61.57
41218;BME280;26950;50.960;7.138;2023-04-29T09:31:07;100840.69;;;15.23;61.74
41218;BME280;26950;50.960;7.138;2023-04-29T09:33:51;100845.19;;;15.30;61.48
41218;BME280;26950;50.960;7.138;2023-04-29T09:36:39;100842.53;;;15.30;61.50
41218;BME280;26950;50.960;7.138;2023-04-29T09:39:07;100847.75;;;15.25;61.68
41218;BME280;26950;50.960;7.138;2023-04-29T09:41:38;100841.66;;;15.31;61.53
41218;BME280;26950;50.960;7.138;2023-04-29T09:44:06;100840.78;;;15.32;61.28
41218;BME280;26950;50.960;7.138;2023-04-29T09:46:33;100836.31;;;15.26;61.38
41218;BME280;26950;50.960;7.138;2023-04-29T09:49:01;100838.13;;;15.30;61.34
41218;BME280;26950;50.960;7.138;2023-04-29T09:51:28;100847.91;;;15.36;61.13
41218;BME280;26950;50.960;7.138;2023-04-29T09:53:58;100847.06;;;15.40;60.88
41218;BME280;26950;50.960;7.138;2023-04-29T09:56:25;100854.97;;;15.38;61.20
41218;BME280;26950;50.960;7.138;2023-04-29T09:58:53;100858.53;;;15.41;61.20
41218;BME280;26950;50.960;7.138;2023-04-29T10:01:21;100864.72;;;15.41;60.99
41218;BME280;26950;50.960;7.138;2023-04-29T10:03:49;100862.03;;;15.39;60.84
41218;BME280;26950;50.960;7.138;2023-04-29T10:06:16;100867.28;;;15.36;61.15
41218;BME280;26950;50.960;7.138;2023-04-29T10:08:45;100879.63;;;15.34;61.48
41218;BME280;26950;50.960;7.138;2023-04-29T10:11:15;100876.19;;;15.42;61.35
41218;BME280;26950;50.960;7.138;2023-04-29T10:13:42;100878.88;;;15.46;61.54
41218;BME280;26950;50.960;7.138;2023-04-29T10:16:22;100881.63;;;15.55;61.24
41218;BME280;26950;50.960;7.138;2023-04-29T10:18:53;100886.75;;;15.42;61.56
41218;BME280;26950;50.960;7.138;2023-04-29T10:21:26;100878.91;;;15.49;60.77
41218;BME280;26950;50.960;7.138;2023-04-29T10:23:53;100873.59;;;15.46;60.83
41218;BME280;26950;50.960;7.138;2023-04-29T10:26:25;100890.91;;;15.23;61.51
41218;BME280;26950;50.960;7.138;2023-04-29T10:28:54;100878.75;;;15.37;60.86
41218;BME280;26950;50.960;7.138;2023-04-29T10:31:21;100887.63;;;15.42;60.67
41218;BME280;26950;50.960;7.138;2023-04-29T10:33:48;100889.34;;;15.37;60.99
41218;BME280;26950;50.960;7.138;2023-04-29T10:36:16;100892.84;;;15.36;61.25
41218;BME280;26950;50.960;7.138;2023-04-29T10:38:45;100890.28;;;15.42;60.94
41218;BME280;26950;50.960;7.138;2023-04-29T10:41:19;100900.78;;;15.37;61.30
41218;BME280;26950;50.960;7.138;2023-04-29T10:43:48;100902.63;;;15.43;61.15
41218;BME280;26950;50.960;7.138;2023-04-29T10:46:19;100906.09;;;15.37;61.16
41218;BME280;26950;50.960;7.138;2023-04-29T10:48:46;100907.81;;;15.34;61.67
41218;BME280;26950;50.960;7.138;2023-04-29T10:51:27;100914.69;;;15.21;61.81
41218;BME280;26950;50.960;7.138;2023-04-29T10:54:06;100906.22;;;14.84;63.26
41218;BME280;26950;50.960;7.138;2023-04-29T10:56:37;100905.75;;;15.15;62.10
41218;BME280;26950;50.960;7.138;2023-04-29T10:59:08;100906.69;;;15.17;62.15
41218;BME280;26950;50.960;7.138;2023-04-29T11:01:43;100912.13;;;15.27;61.67
41218;BME280;26950;50.960;7.138;2023-04-29T11:04:10;100918.22;;;15.22;62.05
41218;BME280;26950;50.960;7.138;2023-04-29T11:06:39;100916.72;;;14.78;63.25
41218;BME280;26950;50.960;7.138;2023-04-29T11:09:14;100916.38;;;15.16;62.35
41218;BME280;26950;50.960;7.138;2023-04-29T11:11:42;100926.19;;;15.25;62.10
41218;BME280;26950;50.960;7.138;2023-04-29T11:14:11;100928.75;;;15.20;61.94
41218;BME280;26950;50.960;7.138;2023-04-29T11:16:46;100925.19;;;15.17;62.09
41218;BME280;26950;50.960;7.138;2023-04-29T11:19:14;100933.22;;;15.24;62.20
41218;BME280;26950;50.960;7.138;2023-04-29T11:21:41;100931.19;;;15.03;62.72
41218;BME280;26950;50.960;7.138;2023-04-29T11:24:07;100927.00;;;15.21;62.28
41218;BME280;26950;50.960;7.138;2023-04-29T11:26:34;100927.50;;;14.95;62.90
41218;BME280;26950;50.960;7.138;2023-04-29T11:29:01;100923.38;;;15.13;62.47
41218;BME280;26950;50.960;7.138;2023-04-29T11:31:31;100924.31;;;15.16;62.49
41218;BME280;26950;50.960;7.138;2023-04-29T11:33:57;100925.22;;;15.20;62.57
41218;BME280;26950;50.960;7.138;2023-04-29T11:36:24;100925.97;;;15.09;62.85
41218;BME280;26950;50.960;7.138;2023-04-29T11:38:52;100927.84;;;15.17;62.45
41218;BME280;26950;50.960;7.138;2023-04-29T11:41:18;100935.72;;;15.14;62.57
41218;BME280;26950;50.960;7.138;2023-04-29T11:43:46;100938.41;;;15.17;62.43
41218;BME280;26950;50.960;7.138;2023-04-29T11:46:13;100936.72;;;15.22;62.47
41218;BME280;26950;50.960;7.138;2023-04-29T11:48:46;100935.78;;;15.17;62.47
41218;BME280;26950;50.960;7.138;2023-04-29T11:51:13;100938.44;;;15.18;62.47
41218;BME280;26950;50.960;7.138;2023-04-29T11:53:40;100935.84;;;15.21;62.34
41218;BME280;26950;50.960;7.138;2023-04-29T11:56:07;100943.00;;;15.28;62.27
41218;BME280;26950;50.960;7.138;2023-04-29T11:58:34;100940.38;;;15.33;61.79
41218;BME280;26950;50.960;7.138;2023-04-29T12:01:01;100941.28;;;15.33;62.00
41218;BME280;26950;50.960;7.138;2023-04-29T12:03:28;100938.69;;;15.35;62.21
41218;BME280;26950;50.960;7.138;2023-04-29T12:05:56;100943.16;;;15.41;61.89
41218;BME280;26950;50.960;7.138;2023-04-29T12:08:24;100940.38;;;15.30;62.31
41218;BME280;26950;50.960;7.138;2023-04-29T12:10:51;100943.25;;;15.47;61.76
41218;BME280;26950;50.960;7.138;2023-04-29T12:13:18;100936.19;;;15.47;61.60
41218;BME280;26950;50.960;7.138;2023-04-29T12:15:47;100945.88;;;15.47;61.35
41218;BME280;26950;50.960;7.138;2023-04-29T12:18:16;100945.91;;;15.50;61.08
41218;BME280;26950;50.960;7.138;2023-04-29T12:20:43;100944.22;;;15.55;61.57
41218;BME280;26950;50.960;7.138;2023-04-29T12:23:12;100949.50;;;15.53;61.89
41218;BME280;26950;50.960;7.138;2023-04-29T12:25:39;100953.03;;;15.55;61.92
41218;BME280;26950;50.960;7.138;2023-04-29T12:28:10;100953.03;;;15.55;62.03
41218;BME280;26950;50.960;7.138;2023-04-29T12:30:37;100954.13;;;15.68;61.96
41218;BME280;26950;50.960;7.138;2023-04-29T12:33:03;100955.97;;;15.75;61.80
41218;BME280;26950;50.960;7.138;2023-04-29T12:35:30;100955.13;;;15.78;61.47
41218;BME280;26950;50.960;7.138;2023-04-29T12:37:57;100954.22;;;15.77;61.37
41218;BME280;26950;50.960;7.138;2023-04-29T12:40:25;100954.09;;;15.67;61.83
41218;BME280;26950;50.960;7.138;2023-04-29T12:42:52;100957.72;;;15.72;61.09
41218;BME280;26950;50.960;7.138;2023-04-29T12:45:26;100960.34;;;15.72;61.32
41218;BME280;26950;50.960;7.138;2023-04-29T12:47:54;100956.84;;;15.74;60.85
41218;BME280;26950;50.960;7.138;2023-04-29T12:50:30;100954.19;;;15.74;61.40
41218;BME280;26950;50.960;7.138;2023-04-29T12:52:58;100943.53;;;15.70;61.40